sensor_id;sensor_type;location;lat;lon;timestamp;temperature;humidity
1700;DHT22;847;48.058;7.810;2023-04-29T00:01:04;16.90;99.00
1700;DHT22;847;48.058;7.810;2023-04-29T00:03:31;16.60;99.00
1700;DHT22;847;48.058;7.810;2023-04-29T00:05:58;16.30;99.00
1700;DHT22;847;48.058;7.810;2023-04-29T00:08:25;16.20;99.00
1700;DHT22;847;48.058;7.810;2023-04-29T00:10:51;16.30;99.00
1700;DHT22;847;48.058;7.810;2023-04-29T00:13:20;16.30;99.00
1700;DHT22;847;48.058;7.810;2023-04-29T00:15:46;16.40;99.00
1700;DHT22;847;48.058;7.810;2023-04-29T00:18:13;16.40;99.00
1700;DHT22;847;48.058;7.810;2023-04-29T00:20:40;16.30;99.00
1700;DHT22;847;48.058;7.810;2023-04-29T00:23:07;16.30;99.00
1700;DHT22;847;48.058;7.810;2023-04-29T00:25:34;16.40;99.00
1700;DHT22;847;48.058;7.810;2023-04-29T00:28:03;16.40;99.00
1700;DHT22;847;48.058;7.810;2023-04-29T00:30:31;16.40;99.00
1700;DHT22;847;48.058;7.810;2023-04-29T00:32:59;16.40;99.00
1700;DHT22;847;48.058;7.810;2023-04-29T00:35:25;16.40;99.00
1700;DHT22;847;48.058;7.810;2023-04-29T00:37:52;16.40;99.00
1700;DHT22;847;48.058;7.810;2023-04-29T00:40:19;16.60;99.00
1700;DHT22;847;48.058;7.810;2023-04-29T00:42:46;16.80;99.00
1700;DHT22;847;48.058;7.810;2023-04-29T00:45:13;16.80;99.00
1700;DHT22;847;48.058;7.810;2023-04-29T00:47:41;16.70;99.00
1700;DHT22;847;48.058;7.810;2023-04-29T00:50:08;16.40;99.00
1700;DHT22;847;48.058;7.810;2023-04-29T00:52:36;16.30;99.00
1700;DHT22;847;48.058;7.810;2023-04-29T00:55:04;16.20;99.00
1700;DHT22;847;48.058;7.810;2023-04-29T00:57:32;16.20;99.00
1700;DHT22;847;48.058;7.810;2023-04-29T01:00:00;16.20;99.00
1700;DHT22;847;48.058;7.810;2023-04-29T01:02:27;16.00;99.00
1700;DHT22;847;48.058;7.810;2023-04-29T01:04:56;16.00;99.00
1700;DHT22;847;48.058;7.810;2023-04-29T01:07:27;16.00;99.00
1700;DHT22;847;48.058;7.810;2023-04-29T01:10:01;16.00;99.00
1700;DHT22;847;48.058;7.810;2023-04-29T01:12:33;15.80;99.00
1700;DHT22;847;48.058;7.810;2023-04-29T01:15:04;15.70;99.00
1700;DHT22;847;48.058;7.810;2023-04-29T01:17:40;15.80;99.00
1700;DHT22;847;48.058;7.810;2023-04-29T01:20:10;15.90;99.00
1700;DHT22;847;48.058;7.810;2023-04-29T01:22:37;15.90;99.00
1700;DHT22;847;48.058;7.810;2023-04-29T01:25:06;15.60;99.00
1700;DHT22;847;48.058;7.810;2023-04-29T01:27:38;15.50;99.00
1700;DHT22;847;48.058;7.810;2023-04-29T01:30:11;15.40;99.00
1700;DHT22;847;48.058;7.810;2023-04-29T01:32:57;15.50;99.00
1700;DHT22;847;48.058;7.810;2023-04-29T01:35:37;15.50;99.00
1700;DHT22;847;48.058;7.810;2023-04-29T01:38:16;15.50;99.00
1700;DHT22;847;48.058;7.810;2023-04-29T01:40:52;15.50;99.00
1700;DHT22;847;48.058;7.810;2023-04-29T01:43:24;15.40;99.00
1700;DHT22;847;48.058;7.810;2023-04-29T01:45:53;15.30;99.00
1700;DHT22;847;48.058;7.810;2023-04-29T01:48:22;15.50;99.00
1700;DHT22;847;48.058;7.810;2023-04-29T01:50:49;15.50;99.00
1700;DHT22;847;48.058;7.810;2023-04-29T01:53:16;15.30;99.00
1700;DHT22;847;48.058;7.810;2023-04-29T01:55:43;15.30;99.00
1700;DHT22;847;48.058;7.810;2023-04-29T01:58:11;15.30;99.00
1700;DHT22;847;48.058;7.810;2023-04-29T02:00:38;15.30;99.00
1700;DHT22;847;48.058;7.810;2023-04-29T02:03:04;15.30;99.00
1700;DHT22;847;48.058;7.810;2023-04-29T02:05:31;15.30;99.00
1700;DHT22;847;48.058;7.810;2023-04-29T02:07:58;15.40;99.00
1700;DHT22;847;48.058;7.810;2023-04-29T02:10:25;15.40;99.00
1700;DHT22;847;48.058;7.810;2023-04-29T02:12:52;15.40;99.00
1700;DHT22;847;48.058;7.810;2023-04-29T02:15:20;15.40;99.00
1700;DHT22;847;48.058;7.810;2023-04-29T02:17:47;15.30;99.00
1700;DHT22;847;48.058;7.810;2023-04-29T02:20:14;15.20;99.00
1700;DHT22;847;48.058;7.810;2023-04-29T02:22:40;15.20;99.00
1700;DHT22;847;48.058;7.810;2023-04-29T02:25:08;15.10;99.00
1700;DHT22;847;48.058;7.810;2023-04-29T02:27:35;15.10;99.00
1700;DHT22;847;48.058;7.810;2023-04-29T02:30:02;15.20;99.00
1700;DHT22;847;48.058;7.810;2023-04-29T02:32:31;15.10;99.00
1700;DHT22;847;48.058;7.810;2023-04-29T02:34:58;15.10;99.00
1700;DHT22;847;48.058;7.810;2023-04-29T02:37:25;15.10;99.00
1700;DHT22;847;48.058;7.810;2023-04-29T02:39:52;15.10;99.00
1700;DHT22;847;48.058;7.810;2023-04-29T02:42:18;15.00;99.00
1700;DHT22;847;48.058;7.810;2023-04-29T02:44:45;15.00;99.00
1700;DHT22;847;48.058;7.810;2023-04-29T02:47:12;15.20;99.00
1700;DHT22;847;48.058;7.810;2023-04-29T02:49:41;15.10;99.00
1700;DHT22;847;48.058;7.810;2023-04-29T02:52:07;15.10;99.00
1700;DHT22;847;48.058;7.810;2023-04-29T02:54:34;15.10;99.00
1700;DHT22;847;48.058;7.810;2023-04-29T02:57:01;15.10;99.00
1700;DHT22;847;48.058;7.810;2023-04-29T02:59:28;15.00;99.00
1700;DHT22;847;48.058;7.810;2023-04-29T03:01:54;15.00;99.00
1700;DHT22;847;48.058;7.810;2023-04-29T03:04:21;15.00;99.00
1700;DHT22;847;48.058;7.810;2023-04-29T03:06:49;15.00;99.00
1700;DHT22;847;48.058;7.810;2023-04-29T03:09:16;15.00;99.00
1700;DHT22;847;48.058;7.810;2023-04-29T03:11:43;14.90;99.00
1700;DHT22;847;48.058;7.810;2023-04-29T03:14:10;15.00;99.00
1700;DHT22;847;48.058;7.810;2023-04-29T03:16:36;15.00;99.00
1700;DHT22;847;48.058;7.810;2023-04-29T03:19:03;15.00;99.00
1700;DHT22;847;48.058;7.810;2023-04-29T03:21:30;14.90;99.00
1700;DHT22;847;48.058;7.810;2023-04-29T03:23:59;14.80;99.00
1700;DHT22;847;48.058;7.810;2023-04-29T03:26:26;14.70;99.00
1700;DHT22;847;48.058;7.810;2023-04-29T03:28:52;14.70;99.00
1700;DHT22;847;48.058;7.810;2023-04-29T03:31:19;14.80;99.00
1700;DHT22;847;48.058;7.810;2023-04-29T03:33:47;14.60;99.00
1700;DHT22;847;48.058;7.810;2023-04-29T03:36:15;14.50;99.00
1700;DHT22;847;48.058;7.810;2023-04-29T03:38:42;14.40;99.00
1700;DHT22;847;48.058;7.810;2023-04-29T03:41:10;14.40;99.00
1700;DHT22;847;48.058;7.810;2023-04-29T03:43:36;14.20;99.00
1700;DHT22;847;48.058;7.810;2023-04-29T03:46:03;14.30;99.00
1700;DHT22;847;48.058;7.810;2023-04-29T03:48:30;14.50;99.00
1700;DHT22;847;48.058;7.810;2023-04-29T03:50:57;14.50;99.00
1700;DHT22;847;48.058;7.810;2023-04-29T03:53:24;14.50;99.00
1700;DHT22;847;48.058;7.810;2023-04-29T03:55:51;14.40;99.00
1700;DHT22;847;48.058;7.810;2023-04-29T03:58:20;14.40;99.00
1700;DHT22;847;48.058;7.810;2023-04-29T04:00:48;14.40;99.00
1700;DHT22;847;48.058;7.810;2023-04-29T04:03:14;14.40;99.00
1700;DHT22;847;48.058;7.810;2023-04-29T04:05:41;14.30;99.00
1700;DHT22;847;48.058;7.810;2023-04-29T04:08:08;14.40;99.00
1700;DHT22;847;48.058;7.810;2023-04-29T04:10:35;14.40;99.00
1700;DHT22;847;48.058;7.810;2023-04-29T04:13:02;14.30;99.00
1700;DHT22;847;48.058;7.810;2023-04-29T04:15:30;14.30;99.00
1700;DHT22;847;48.058;7.810;2023-04-29T04:17:56;14.20;99.00
1700;DHT22;847;48.058;7.810;2023-04-29T04:20:23;14.20;99.00
1700;DHT22;847;48.058;7.810;2023-04-29T04:22:50;14.20;99.00
1700;DHT22;847;48.058;7.810;2023-04-29T04:25:19;14.20;99.00
1700;DHT22;847;48.058;7.810;2023-04-29T04:27:45;14.20;99.00
1700;DHT22;847;48.058;7.810;2023-04-29T04:30:12;14.20;99.00
1700;DHT22;847;48.058;7.810;2023-04-29T04:32:40;14.10;99.00
1700;DHT22;847;48.058;7.810;2023-04-29T04:35:08;14.10;99.00
1700;DHT22;847;48.058;7.810;2023-04-29T04:37:34;14.10;99.00
1700;DHT22;847;48.058;7.810;2023-04-29T04:40:01;14.20;99.00
1700;DHT22;847;48.058;7.810;2023-04-29T04:42:28;14.10;99.00
1700;DHT22;847;48.058;7.810;2023-04-29T04:44:55;14.10;99.00
1700;DHT22;847;48.058;7.810;2023-04-29T04:47:22;14.10;99.00
1700;DHT22;847;48.058;7.810;2023-04-29T04:49:50;14.10;99.00
1700;DHT22;847;48.058;7.810;2023-04-29T04:52:19;13.90;99.00
1700;DHT22;847;48.058;7.810;2023-04-29T04:54:46;13.70;99.00
1700;DHT22;847;48.058;7.810;2023-04-29T04:57:13;13.40;99.00
1700;DHT22;847;48.058;7.810;2023-04-29T04:59:40;13.40;99.00
1700;DHT22;847;48.058;7.810;2023-04-29T05:02:07;13.50;99.00
1700;DHT22;847;48.058;7.810;2023-04-29T05:04:34;13.50;99.00
1700;DHT22;847;48.058;7.810;2023-04-29T05:07:02;13.60;99.00
1700;DHT22;847;48.058;7.810;2023-04-29T05:09:29;13.70;99.00
1700;DHT22;847;48.058;7.810;2023-04-29T05:11:56;13.80;99.00
1700;DHT22;847;48.058;7.810;2023-04-29T05:14:24;14.00;99.00
1700;DHT22;847;48.058;7.810;2023-04-29T05:16:50;14.20;99.00
1700;DHT22;847;48.058;7.810;2023-04-29T05:19:17;14.20;99.00
1700;DHT22;847;48.058;7.810;2023-04-29T05:21:44;14.20;99.00
1700;DHT22;847;48.058;7.810;2023-04-29T05:24:12;14.20;99.00
1700;DHT22;847;48.058;7.810;2023-04-29T05:26:39;14.10;99.00
1700;DHT22;847;48.058;7.810;2023-04-29T05:29:08;14.10;99.00
1700;DHT22;847;48.058;7.810;2023-04-29T05:31:34;14.10;99.00
1700;DHT22;847;48.058;7.810;2023-04-29T05:34:01;14.20;99.00
1700;DHT22;847;48.058;7.810;2023-04-29T05:36:28;14.20;99.00
1700;DHT22;847;48.058;7.810;2023-04-29T05:38:55;14.30;99.00
1700;DHT22;847;48.058;7.810;2023-04-29T05:41:23;14.30;99.00
1700;DHT22;847;48.058;7.810;2023-04-29T05:43:50;14.30;99.00
1700;DHT22;847;48.058;7.810;2023-04-29T05:46:17;14.30;99.00
1700;DHT22;847;48.058;7.810;2023-04-29T05:48:45;14.30;99.00
1700;DHT22;847;48.058;7.810;2023-04-29T05:51:12;14.20;99.00
1700;DHT22;847;48.058;7.810;2023-04-29T05:53:38;14.20;99.00
1700;DHT22;847;48.058;7.810;2023-04-29T05:56:06;14.20;99.00
1700;DHT22;847;48.058;7.810;2023-04-29T05:58:34;14.20;99.00
1700;DHT22;847;48.058;7.810;2023-04-29T06:01:01;14.20;99.00
1700;DHT22;847;48.058;7.810;2023-04-29T06:03:28;14.20;99.00
1700;DHT22;847;48.058;7.810;2023-04-29T06:05:55;14.20;99.00
1700;DHT22;847;48.058;7.810;2023-04-29T06:08:23;14.10;99.00
1700;DHT22;847;48.058;7.810;2023-04-29T06:10:50;14.10;99.00
1700;DHT22;847;48.058;7.810;2023-04-29T06:13:17;14.20;99.00
1700;DHT22;847;48.058;7.810;2023-04-29T06:15:45;14.20;99.00
1700;DHT22;847;48.058;7.810;2023-04-29T06:18:12;14.20;99.00
1700;DHT22;847;48.058;7.810;2023-04-29T06:20:39;14.20;99.00
1700;DHT22;847;48.058;7.810;2023-04-29T06:23:05;14.20;99.00
1700;DHT22;847;48.058;7.810;2023-04-29T06:25:33;14.20;99.00
1700;DHT22;847;48.058;7.810;2023-04-29T06:27:59;14.10;99.00
1700;DHT22;847;48.058;7.810;2023-04-29T06:30:26;14.10;99.00
1700;DHT22;847;48.058;7.810;2023-04-29T06:32:54;14.20;99.00
1700;DHT22;847;48.058;7.810;2023-04-29T06:35:21;14.20;99.00
1700;DHT22;847;48.058;7.810;2023-04-29T06:37:48;14.20;99.00
1700;DHT22;847;48.058;7.810;2023-04-29T06:40:15;14.30;99.00
1700;DHT22;847;48.058;7.810;2023-04-29T06:42:42;14.30;99.00
1700;DHT22;847;48.058;7.810;2023-04-29T06:45:09;14.30;99.00
1700;DHT22;847;48.058;7.810;2023-04-29T06:47:36;14.40;99.00
1700;DHT22;847;48.058;7.810;2023-04-29T06:50:05;14.30;99.00
1700;DHT22;847;48.058;7.810;2023-04-29T06:52:32;14.30;99.00
1700;DHT22;847;48.058;7.810;2023-04-29T06:54:58;14.40;99.00
1700;DHT22;847;48.058;7.810;2023-04-29T06:57:25;14.50;99.00
1700;DHT22;847;48.058;7.810;2023-04-29T06:59:52;14.50;99.00
1700;DHT22;847;48.058;7.810;2023-04-29T07:02:19;14.40;99.00
1700;DHT22;847;48.058;7.810;2023-04-29T07:04:46;14.50;99.00
1700;DHT22;847;48.058;7.810;2023-04-29T07:07:15;14.50;99.00
1700;DHT22;847;48.058;7.810;2023-04-29T07:09:42;14.50;99.00
1700;DHT22;847;48.058;7.810;2023-04-29T07:12:08;14.50;99.00
1700;DHT22;847;48.058;7.810;2023-04-29T07:14:35;14.60;99.00
1700;DHT22;847;48.058;7.810;2023-04-29T07:17:02;14.50;99.00
1700;DHT22;847;48.058;7.810;2023-04-29T07:19:30;14.50;99.00
1700;DHT22;847;48.058;7.810;2023-04-29T07:21:56;14.50;99.00
1700;DHT22;847;48.058;7.810;2023-04-29T07:24:25;14.50;99.00
1700;DHT22;847;48.058;7.810;2023-04-29T07:26:51;14.50;99.00
1700;DHT22;847;48.058;7.810;2023-04-29T07:29:18;14.50;99.00
1700;DHT22;847;48.058;7.810;2023-04-29T07:31:45;14.50;99.00
1700;DHT22;847;48.058;7.810;2023-04-29T07:34:12;14.50;99.00
1700;DHT22;847;48.058;7.810;2023-04-29T07:36:38;14.50;99.00
1700;DHT22;847;48.058;7.810;2023-04-29T07:39:05;14.50;99.00
1700;DHT22;847;48.058;7.810;2023-04-29T07:41:34;14.60;99.00
1700;DHT22;847;48.058;7.810;2023-04-29T07:44:00;14.70;99.00
1700;DHT22;847;48.058;7.810;2023-04-29T07:46:27;14.70;98.80
1700;DHT22;847;48.058;7.810;2023-04-29T07:48:54;14.80;99.00
1700;DHT22;847;48.058;7.810;2023-04-29T07:51:20;14.80;99.00
1700;DHT22;847;48.058;7.810;2023-04-29T07:53:47;14.80;99.00
1700;DHT22;847;48.058;7.810;2023-04-29T07:56:14;14.90;99.00
1700;DHT22;847;48.058;7.810;2023-04-29T07:58:42;15.00;99.00
1700;DHT22;847;48.058;7.810;2023-04-29T08:01:09;15.10;98.90
1700;DHT22;847;48.058;7.810;2023-04-29T08:03:36;15.10;97.60
1700;DHT22;847;48.058;7.810;2023-04-29T08:06:04;15.10;98.00
1700;DHT22;847;48.058;7.810;2023-04-29T08:08:31;15.10;97.80
1700;DHT22;847;48.058;7.810;2023-04-29T08:10:58;15.20;97.70
1700;DHT22;847;48.058;7.810;2023-04-29T08:13:25;15.10;96.80
1700;DHT22;847;48.058;7.810;2023-04-29T08:15:53;15.10;97.10
1700;DHT22;847;48.058;7.810;2023-04-29T08:18:20;15.10;97.70
1700;DHT22;847;48.058;7.810;2023-04-29T08:20:47;15.10;98.50
1700;DHT22;847;48.058;7.810;2023-04-29T08:23:15;15.20;98.70
1700;DHT22;847;48.058;7.810;2023-04-29T08:25:42;15.30;98.50
1700;DHT22;847;48.058;7.810;2023-04-29T08:28:09;15.30;97.60
1700;DHT22;847;48.058;7.810;2023-04-29T08:30:38;15.30;97.30
1700;DHT22;847;48.058;7.810;2023-04-29T08:33:06;15.30;98.20
1700;DHT22;847;48.058;7.810;2023-04-29T08:35:34;15.40;98.50
1700;DHT22;847;48.058;7.810;2023-04-29T08:38:03;15.50;96.80
1700;DHT22;847;48.058;7.810;2023-04-29T08:40:33;15.50;97.40
1700;DHT22;847;48.058;7.810;2023-04-29T08:43:02;15.50;94.90
1700;DHT22;847;48.058;7.810;2023-04-29T08:45:29;15.50;96.10
1700;DHT22;847;48.058;7.810;2023-04-29T08:47:57;15.50;95.20
1700;DHT22;847;48.058;7.810;2023-04-29T08:50:27;15.50;96.10
1700;DHT22;847;48.058;7.810;2023-04-29T08:52:54;15.60;95.90
1700;DHT22;847;48.058;7.810;2023-04-29T08:55:21;15.60;96.80
1700;DHT22;847;48.058;7.810;2023-04-29T08:57:49;15.60;96.50
1700;DHT22;847;48.058;7.810;2023-04-29T09:00:16;15.70;95.70
1700;DHT22;847;48.058;7.810;2023-04-29T09:02:47;15.80;94.00
1700;DHT22;847;48.058;7.810;2023-04-29T09:05:15;15.80;94.50
1700;DHT22;847;48.058;7.810;2023-04-29T09:07:43;16.00;93.30
1700;DHT22;847;48.058;7.810;2023-04-29T09:10:11;16.10;93.70
1700;DHT22;847;48.058;7.810;2023-04-29T09:12:39;16.10;92.40
1700;DHT22;847;48.058;7.810;2023-04-29T09:15:07;16.10;92.90
1700;DHT22;847;48.058;7.810;2023-04-29T09:17:41;16.20;94.30
1700;DHT22;847;48.058;7.810;2023-04-29T09:20:28;16.20;92.60
1700;DHT22;847;48.058;7.810;2023-04-29T09:22:58;16.30;92.60
1700;DHT22;847;48.058;7.810;2023-04-29T09:25:25;16.20;91.80
1700;DHT22;847;48.058;7.810;2023-04-29T09:27:53;16.20;93.20
1700;DHT22;847;48.058;7.810;2023-04-29T09:30:20;16.20;93.60
1700;DHT22;847;48.058;7.810;2023-04-29T09:33:02;16.20;93.70
1700;DHT22;847;48.058;7.810;2023-04-29T09:35:29;16.20;92.50
1700;DHT22;847;48.058;7.810;2023-04-29T09:38:10;16.20;92.10
1700;DHT22;847;48.058;7.810;2023-04-29T09:40:37;16.20;92.70
1700;DHT22;847;48.058;7.810;2023-04-29T09:43:11;16.20;92.10
1700;DHT22;847;48.058;7.810;2023-04-29T09:45:40;16.30;92.70
1700;DHT22;847;48.058;7.810;2023-04-29T09:48:08;16.30;92.20
1700;DHT22;847;48.058;7.810;2023-04-29T09:50:35;16.30;91.30
1700;DHT22;847;48.058;7.810;2023-04-29T09:53:03;16.30;91.10
1700;DHT22;847;48.058;7.810;2023-04-29T09:55:31;16.30;92.00
1700;DHT22;847;48.058;7.810;2023-04-29T09:57:58;16.40;92.80
1700;DHT22;847;48.058;7.810;2023-04-29T10:00:28;16.50;90.60
1700;DHT22;847;48.058;7.810;2023-04-29T10:02:58;16.50;90.60
1700;DHT22;847;48.058;7.810;2023-04-29T10:05:27;16.50;90.50
1700;DHT22;847;48.058;7.810;2023-04-29T10:07:54;16.60;91.20
1700;DHT22;847;48.058;7.810;2023-04-29T10:10:22;16.90;90.70
1700;DHT22;847;48.058;7.810;2023-04-29T10:12:52;17.20;89.00
1700;DHT22;847;48.058;7.810;2023-04-29T10:15:25;17.10;88.60
1700;DHT22;847;48.058;7.810;2023-04-29T10:17:57;17.10;89.00
1700;DHT22;847;48.058;7.810;2023-04-29T10:20:26;17.20;90.10
1700;DHT22;847;48.058;7.810;2023-04-29T10:22:54;17.30;88.80
1700;DHT22;847;48.058;7.810;2023-04-29T10:25:24;17.20;87.30
1700;DHT22;847;48.058;7.810;2023-04-29T10:27:54;17.20;88.70
1700;DHT22;847;48.058;7.810;2023-04-29T10:30:21;17.30;88.40
1700;DHT22;847;48.058;7.810;2023-04-29T10:32:49;17.30;88.30
1700;DHT22;847;48.058;7.810;2023-04-29T10:35:17;17.50;87.00
1700;DHT22;847;48.058;7.810;2023-04-29T10:37:47;17.90;85.60
1700;DHT22;847;48.058;7.810;2023-04-29T10:40:17;17.90;85.50
1700;DHT22;847;48.058;7.810;2023-04-29T10:42:48;17.90;84.70
1700;DHT22;847;48.058;7.810;2023-04-29T10:45:21;17.70;84.70
1700;DHT22;847;48.058;7.810;2023-04-29T10:48:08;17.80;84.30
1700;DHT22;847;48.058;7.810;2023-04-29T10:50:41;17.70;85.80
1700;DHT22;847;48.058;7.810;2023-04-29T10:53:24;17.60;85.70
1700;DHT22;847;48.058;7.810;2023-04-29T10:55:53;17.60;84.90
1700;DHT22;847;48.058;7.810;2023-04-29T10:58:41;17.60;84.50
1700;DHT22;847;48.058;7.810;2023-04-29T11:01:11;17.70;85.20
1700;DHT22;847;48.058;7.810;2023-04-29T11:03:46;17.90;85.40
1700;DHT22;847;48.058;7.810;2023-04-29T11:06:14;17.90;84.00
1700;DHT22;847;48.058;7.810;2023-04-29T11:08:40;17.90;84.00
1700;DHT22;847;48.058;7.810;2023-04-29T11:11:08;17.90;84.60
1700;DHT22;847;48.058;7.810;2023-04-29T11:13:38;17.80;84.80
1700;DHT22;847;48.058;7.810;2023-04-29T11:16:06;17.70;84.70
1700;DHT22;847;48.058;7.810;2023-04-29T11:18:35;17.70;83.60
1700;DHT22;847;48.058;7.810;2023-04-29T11:21:11;17.80;85.40
1700;DHT22;847;48.058;7.810;2023-04-29T11:23:39;17.90;85.70
1700;DHT22;847;48.058;7.810;2023-04-29T11:26:07;18.00;83.50
1700;DHT22;847;48.058;7.810;2023-04-29T11:28:34;18.00;82.80
1700;DHT22;847;48.058;7.810;2023-04-29T11:31:00;18.10;83.40
1700;DHT22;847;48.058;7.810;2023-04-29T11:33:31;18.10;84.40
1700;DHT22;847;48.058;7.810;2023-04-29T11:35:59;18.20;83.80
1700;DHT22;847;48.058;7.810;2023-04-29T11:38:27;18.50;80.90
1700;DHT22;847;48.058;7.810;2023-04-29T11:41:03;18.30;83.40
1700;DHT22;847;48.058;7.810;2023-04-29T11:43:30;18.30;83.80
1700;DHT22;847;48.058;7.810;2023-04-29T11:45:57;18.30;83.00
1700;DHT22;847;48.058;7.810;2023-04-29T11:48:25;18.40;85.00
1700;DHT22;847;48.058;7.810;2023-04-29T11:50:53;18.40;82.50
1700;DHT22;847;48.058;7.810;2023-04-29T11:53:25;18.40;81.30
1700;DHT22;847;48.058;7.810;2023-04-29T11:55:52;18.50;82.90
1700;DHT22;847;48.058;7.810;2023-04-29T11:58:20;18.60;81.90
1700;DHT22;847;48.058;7.810;2023-04-29T12:00:47;18.60;82.10
1700;DHT22;847;48.058;7.810;2023-04-29T12:03:15;18.70;82.60
1700;DHT22;847;48.058;7.810;2023-04-29T12:05:45;18.60;82.20
1700;DHT22;847;48.058;7.810;2023-04-29T12:08:12;18.70;80.00
1700;DHT22;847;48.058;7.810;2023-04-29T12:10:41;18.70;82.10
1700;DHT22;847;48.058;7.810;2023-04-29T12:13:08;18.70;83.20
1700;DHT22;847;48.058;7.810;2023-04-29T12:15:35;18.70;81.60
1700;DHT22;847;48.058;7.810;2023-04-29T12:18:02;18.80;82.00
1700;DHT22;847;48.058;7.810;2023-04-29T12:20:29;18.70;80.50
1700;DHT22;847;48.058;7.810;2023-04-29T12:22:56;18.70;79.90
1700;DHT22;847;48.058;7.810;2023-04-29T12:25:35;18.90;83.00
1700;DHT22;847;48.058;7.810;2023-04-29T12:28:04;18.90;81.40
1700;DHT22;847;48.058;7.810;2023-04-29T12:30:33;18.90;80.80
1700;DHT22;847;48.058;7.810;2023-04-29T12:33:01;19.00;81.50
1700;DHT22;847;48.058;7.810;2023-04-29T12:35:28;19.00;81.80
1700;DHT22;847;48.058;7.810;2023-04-29T12:37:57;18.80;82.20
1700;DHT22;847;48.058;7.810;2023-04-29T12:40:25;18.90;83.00
1700;DHT22;847;48.058;7.810;2023-04-29T12:42:52;18.90;82.60
1700;DHT22;847;48.058;7.810;2023-04-29T12:45:28;19.00;82.40
1700;DHT22;847;48.058;7.810;2023-04-29T12:47:55;18.90;82.50
1700;DHT22;847;48.058;7.810;2023-04-29T12:50:31;18.70;81.60
1700;DHT22;847;48.058;7.810;2023-04-29T12:52:59;18.80;83.40
1700;DHT22;847;48.058;7.810;2023-04-29T12:55:26;18.80;82.70
1700;DHT22;847;48.058;7.810;2023-04-29T12:57:53;18.90;82.20
1700;DHT22;847;48.058;7.810;2023-04-29T13:00:20;19.00;82.70
1700;DHT22;847;48.058;7.810;2023-04-29T13:02:48;18.90;81.30
1700;DHT22;847;48.058;7.810;2023-04-29T13:05:15;19.00;82.80
1700;DHT22;847;48.058;7.810;2023-04-29T13:07:42;19.10;82.00
1700;DHT22;847;48.058;7.810;2023-04-29T13:10:09;19.00;81.20
1700;DHT22;847;48.058;7.810;2023-04-29T13:12:38;19.00;82.50
1700;DHT22;847;48.058;7.810;2023-04-29T13:15:06;19.20;81.90
1700;DHT22;847;48.058;7.810;2023-04-29T13:17:34;19.10;81.80
1700;DHT22;847;48.058;7.810;2023-04-29T13:20:02;19.00;80.70
1700;DHT22;847;48.058;7.810;2023-04-29T13:22:29;18.90;81.40
1700;DHT22;847;48.058;7.810;2023-04-29T13:24:56;19.00;81.40
1700;DHT22;847;48.058;7.810;2023-04-29T13:27:23;18.80;80.00
1700;DHT22;847;48.058;7.810;2023-04-29T13:29:50;18.80;82.00
1700;DHT22;847;48.058;7.810;2023-04-29T13:32:16;18.70;80.60
1700;DHT22;847;48.058;7.810;2023-04-29T13:34:45;18.90;82.70
1700;DHT22;847;48.058;7.810;2023-04-29T13:37:13;18.80;82.40
1700;DHT22;847;48.058;7.810;2023-04-29T13:39:41;18.70;82.60
1700;DHT22;847;48.058;7.810;2023-04-29T13:42:08;19.00;80.90
1700;DHT22;847;48.058;7.810;2023-04-29T13:44:35;19.10;80.90
1700;DHT22;847;48.058;7.810;2023-04-29T13:47:02;19.00;81.50
1700;DHT22;847;48.058;7.810;2023-04-29T13:49:30;18.90;81.00
1700;DHT22;847;48.058;7.810;2023-04-29T13:51:57;18.70;82.10
1700;DHT22;847;48.058;7.810;2023-04-29T13:54:25;18.40;81.50
1700;DHT22;847;48.058;7.810;2023-04-29T13:56:52;18.50;82.70
1700;DHT22;847;48.058;7.810;2023-04-29T13:59:18;18.60;81.30
1700;DHT22;847;48.058;7.810;2023-04-29T14:01:57;18.60;80.40
1700;DHT22;847;48.058;7.810;2023-04-29T14:04:24;18.60;80.10
1700;DHT22;847;48.058;7.810;2023-04-29T14:06:50;18.60;81.40
1700;DHT22;847;48.058;7.810;2023-04-29T14:09:17;18.80;80.70
1700;DHT22;847;48.058;7.810;2023-04-29T14:11:45;19.10;79.70
1700;DHT22;847;48.058;7.810;2023-04-29T14:14:12;19.10;81.20
1700;DHT22;847;48.058;7.810;2023-04-29T14:16:39;19.00;80.40
1700;DHT22;847;48.058;7.810;2023-04-29T14:19:07;18.90;81.50
1700;DHT22;847;48.058;7.810;2023-04-29T14:21:34;18.70;80.10
1700;DHT22;847;48.058;7.810;2023-04-29T14:24:01;18.60;81.40
1700;DHT22;847;48.058;7.810;2023-04-29T14:26:29;18.50;80.10
1700;DHT22;847;48.058;7.810;2023-04-29T14:28:56;18.10;81.00
1700;DHT22;847;48.058;7.810;2023-04-29T14:31:23;18.10;80.10
1700;DHT22;847;48.058;7.810;2023-04-29T14:33:52;18.00;81.30
1700;DHT22;847;48.058;7.810;2023-04-29T14:36:20;18.10;82.30
1700;DHT22;847;48.058;7.810;2023-04-29T14:38:47;18.10;80.90
1700;DHT22;847;48.058;7.810;2023-04-29T14:41:14;18.10;80.60
1700;DHT22;847;48.058;7.810;2023-04-29T14:43:40;18.30;79.50
1700;DHT22;847;48.058;7.810;2023-04-29T14:46:08;18.50;79.60
1700;DHT22;847;48.058;7.810;2023-04-29T14:48:34;18.30;79.40
1700;DHT22;847;48.058;7.810;2023-04-29T14:51:01;18.30;80.20
1700;DHT22;847;48.058;7.810;2023-04-29T14:53:29;18.10;79.80
1700;DHT22;847;48.058;7.810;2023-04-29T14:55:56;18.00;80.00
1700;DHT22;847;48.058;7.810;2023-04-29T14:58:23;18.00;80.60
1700;DHT22;847;48.058;7.810;2023-04-29T15:00:50;18.10;80.30
1700;DHT22;847;48.058;7.810;2023-04-29T15:03:17;18.20;81.30
1700;DHT22;847;48.058;7.810;2023-04-29T15:05:44;18.20;82.50
1700;DHT22;847;48.058;7.810;2023-04-29T15:08:10;18.40;80.10
1700;DHT22;847;48.058;7.810;2023-04-29T15:10:39;18.20;79.00
1700;DHT22;847;48.058;7.810;2023-04-29T15:13:05;18.10;80.90
1700;DHT22;847;48.058;7.810;2023-04-29T15:15:32;18.00;80.00
1700;DHT22;847;48.058;7.810;2023-04-29T15:17:59;18.10;80.70
1700;DHT22;847;48.058;7.810;2023-04-29T15:20:26;18.40;80.00
1700;DHT22;847;48.058;7.810;2023-04-29T15:22:53;18.50;80.10
1700;DHT22;847;48.058;7.810;2023-04-29T15:25:20;18.60;79.50
1700;DHT22;847;48.058;7.810;2023-04-29T15:27:48;18.30;78.30
1700;DHT22;847;48.058;7.810;2023-04-29T15:30:15;18.40;78.80
1700;DHT22;847;48.058;7.810;2023-04-29T15:32:43;18.40;79.40
1700;DHT22;847;48.058;7.810;2023-04-29T15:35:10;18.40;78.90
1700;DHT22;847;48.058;7.810;2023-04-29T15:37:37;18.40;78.40
1700;DHT22;847;48.058;7.810;2023-04-29T15:40:05;18.30;78.50
1700;DHT22;847;48.058;7.810;2023-04-29T15:42:32;18.30;78.50
1700;DHT22;847;48.058;7.810;2023-04-29T15:45:00;18.40;78.40
1700;DHT22;847;48.058;7.810;2023-04-29T15:47:27;18.30;78.30
1700;DHT22;847;48.058;7.810;2023-04-29T15:49:54;18.30;78.50
1700;DHT22;847;48.058;7.810;2023-04-29T15:52:21;18.00;78.90
1700;DHT22;847;48.058;7.810;2023-04-29T15:54:47;17.90;79.50
1700;DHT22;847;48.058;7.810;2023-04-29T15:57:14;17.90;79.40
1700;DHT22;847;48.058;7.810;2023-04-29T15:59:41;17.90;79.60
1700;DHT22;847;48.058;7.810;2023-04-29T16:02:09;18.10;79.90
1700;DHT22;847;48.058;7.810;2023-04-29T16:04:36;18.10;78.90
1700;DHT22;847;48.058;7.810;2023-04-29T16:07:03;18.10;78.20
1700;DHT22;847;48.058;7.810;2023-04-29T16:09:30;18.20;77.90
1700;DHT22;847;48.058;7.810;2023-04-29T16:11:57;18.20;77.80
1700;DHT22;847;48.058;7.810;2023-04-29T16:14:24;18.20;77.50
1700;DHT22;847;48.058;7.810;2023-04-29T16:16:51;18.10;78.80
1700;DHT22;847;48.058;7.810;2023-04-29T16:19:19;18.00;78.20
1700;DHT22;847;48.058;7.810;2023-04-29T16:21:46;17.90;79.00